Time;durP1;ratioP1;P1;durP2;ratioP2;P2;SDS_P1;SDS_P2;PMS_P1;PMS_P2;Temp;Humidity;BMP_temperature;BMP_pressure;BME280_temperature;BME280_humidity;BME280_pressure;Samples;Min_cycle;Max_cycle;Signal;HPM_P1;HPM_P2
2022/12/05 00:00:35;;;;;;;25.92;9.93;;;4.50;99.90;;;;;;5083764;28;20089;-66
2022/12/05 00:03:05;;;;;;;28.45;10.13;;;4.40;99.90;;;;;;5079497;28;20044;-67
2022/12/05 00:05:31;;;;;;;25.65;9.40;;;4.40;99.90;;;;;;5078905;28;20397;-66
2022/12/05 00:07:56;;;;;;;24.55;9.48;;;4.40;99.90;;;;;;5080391;28;20047;-66
2022/12/05 00:10:22;;;;;;;23.88;9.90;;;4.40;99.90;;;;;;5087385;28;20037;-66
2022/12/05 00:12:48;;;;;;;21.27;8.63;;;4.50;99.90;;;;;;5062252;28;20048;-66
2022/12/05 00:15:13;;;;;;;21.15;8.00;;;4.50;99.90;;;;;;5087703;28;20055;-66
2022/12/05 00:17:39;;;;;;;24.70;9.07;;;4.50;99.90;;;;;;5091267;28;20048;-66
2022/12/05 00:20:05;;;;;;;;;;;4.50;99.90;;;;;;5092504;28;20059;-66
2022/12/05 00:22:33;;;;;;;23.77;8.50;;;4.50;99.90;;;;;;5093584;28;19924;-66
2022/12/05 00:24:59;;;;;;;22.63;8.98;;;4.50;99.90;;;;;;5092396;28;20055;-66
2022/12/05 00:27:25;;;;;;;22.60;8.32;;;4.50;99.90;;;;;;5093302;28;20048;-67
2022/12/05 00:29:50;;;;;;;20.98;9.10;;;4.50;99.90;;;;;;5092895;28;20131;-66
2022/12/05 00:32:16;;;;;;;24.33;8.05;;;4.60;99.90;;;;;;5093606;28;20083;-66
2022/12/05 00:34:41;;;;;;;20.20;8.55;;;4.60;99.90;;;;;;5092539;28;20052;-69
2022/12/05 00:37:07;;;;;;;23.90;8.30;;;4.60;99.90;;;;;;5093183;28;20089;-66
2022/12/05 00:39:33;;;;;;;21.75;7.90;;;4.60;99.90;;;;;;5093167;28;20052;-66
2022/12/05 00:41:59;;;;;;;19.88;7.43;;;4.60;99.90;;;;;;5091811;28;20054;-66
2022/12/05 00:44:24;;;;;;;22.80;8.45;;;4.60;99.90;;;;;;5093407;28;20066;-66
2022/12/05 00:46:50;;;;;;;23.60;8.85;;;4.60;99.90;;;;;;5092777;28;20538;-66
2022/12/05 00:49:16;;;;;;;19.83;8.38;;;4.60;99.90;;;;;;5074270;28;20075;-66
2022/12/05 00:51:42;;;;;;;22.20;8.68;;;4.60;99.90;;;;;;5093106;28;20040;-66
2022/12/05 00:54:12;;;;;;;22.88;8.98;;;4.60;99.90;;;;;;5092218;28;20052;-66
2022/12/05 00:56:38;;;;;;;23.83;9.20;;;4.60;99.90;;;;;;5092856;28;20079;-67
2022/12/05 00:59:05;;;;;;;22.63;9.73;;;4.60;99.90;;;;;;5092148;28;20442;-66
2022/12/05 01:01:39;;;;;;;24.65;9.48;;;4.80;99.90;;;;;;5092843;28;20087;-66
2022/12/05 01:04:09;;;;;;;26.10;9.27;;;4.70;99.90;;;;;;5091547;28;20051;-66
2022/12/05 01:06:35;;;;;;;26.80;9.68;;;4.70;99.90;;;;;;5091151;28;20047;-65
2022/12/05 01:09:02;;;;;;;26.25;10.20;;;4.80;99.90;;;;;;5091983;28;20040;-67
2022/12/05 01:11:28;;;;;;;25.98;9.30;;;4.70;99.90;;;;;;5092523;28;20405;-66
2022/12/05 01:13:54;;;;;;;24.73;9.73;;;4.80;99.90;;;;;;5092473;28;20126;-66
2022/12/05 01:16:40;;;;;;;24.55;9.40;;;4.70;99.90;;;;;;5092761;28;20112;-66
2022/12/05 01:19:19;;;;;;;26.60;9.85;;;4.70;99.90;;;;;;5091851;28;20055;-66
2022/12/05 01:21:46;;;;;;;27.27;9.90;;;4.70;99.90;;;;;;5092672;28;20044;-66
2022/12/05 01:24:13;;;;;;;26.45;10.25;;;4.70;99.90;;;;;;5091778;28;20127;-66
2022/12/05 01:26:40;;;;;;;24.33;9.38;;;4.70;99.90;;;;;;5092086;28;20517;-65
2022/12/05 01:29:06;;;;;;;24.95;10.27;;;4.70;99.90;;;;;;5091872;28;20115;-66
2022/12/05 01:31:35;;;;;;;28.33;10.43;;;4.70;99.90;;;;;;5092311;28;20127;-66
2022/12/05 01:34:03;;;;;;;28.40;10.50;;;4.70;99.90;;;;;;5090179;28;20409;-66
2022/12/05 01:36:29;;;;;;;25.25;9.43;;;4.70;99.90;;;;;;5091084;28;20099;-66
2022/12/05 01:38:55;;;;;;;25.30;9.80;;;4.70;99.90;;;;;;5090862;28;20075;-66
2022/12/05 01:41:27;;;;;;;22.20;10.38;;;4.70;99.90;;;;;;5091379;28;20058;-66
2022/12/05 01:43:58;;;;;;;25.95;10.63;;;4.70;99.90;;;;;;5091862;28;20052;-66
2022/12/05 01:46:26;;;;;;;27.33;9.77;;;4.70;99.90;;;;;;5092155;28;20048;-66
2022/12/05 01:49:01;;;;;;;25.60;10.48;;;4.70;99.90;;;;;;5091648;28;20508;-66
2022/12/05 01:51:28;;;;;;;21.47;9.43;;;4.70;99.90;;;;;;5091593;28;20071;-66
2022/12/05 01:53:54;;;;;;;28.23;10.60;;;4.70;99.90;;;;;;5090700;28;20405;-66
2022/12/05 01:56:20;;;;;;;24.10;10.70;;;4.70;99.90;;;;;;5091166;28;20040;-66
2022/12/05 01:58:46;;;;;;;27.65;11.02;;;4.70;99.90;;;;;;5092059;28;20043;-66
2022/12/05 02:01:15;;;;;;;24.58;9.27;;;4.80;99.90;;;;;;5091223;28;20397;-66
2022/12/05 02:03:45;;;;;;;26.42;10.60;;;4.80;99.90;;;;;;5091944;28;20056;-66
2022/12/05 02:06:12;;;;;;;29.00;10.38;;;4.70;99.90;;;;;;5090232;28;20036;-66
2022/12/05 02:08:39;;;;;;;26.55;11.13;;;4.70;99.90;;;;;;5073203;28;20048;-66
2022/12/05 02:11:07;;;;;;;24.60;9.73;;;4.80;99.90;;;;;;5090772;28;20051;-66
2022/12/05 02:13:53;;;;;;;29.88;11.20;;;4.80;99.90;;;;;;5091846;28;20079;-66
2022/12/05 02:16:31;;;;;;;28.50;11.00;;;4.70;99.90;;;;;;5091232;28;20501;-66
2022/12/05 02:19:21;;;;;;;26.17;10.60;;;4.70;99.90;;;;;;5090982;28;20040;-66
2022/12/05 02:21:58;;;;;;;24.00;10.80;;;4.80;99.90;;;;;;5091456;28;20044;-66
2022/12/05 02:24:54;;;;;;;26.58;9.95;;;4.70;99.90;;;;;;5090734;28;20040;-66
2022/12/05 02:27:31;;;;;;;27.80;9.95;;;4.80;99.90;;;;;;5070267;28;20363;-66
2022/12/05 02:30:04;;;;;;;26.95;10.35;;;4.80;99.90;;;;;;5086262;28;20048;-66
2022/12/05 02:33:01;;;;;;;30.98;12.10;;;4.80;99.90;;;;;;5091393;28;20044;-66
2022/12/05 02:36:04;;;;;;;30.80;10.43;;;4.80;99.90;;;;;;5090100;28;20050;-66
2022/12/05 02:38:48;;;;;;;24.63;10.65;;;4.80;99.90;;;;;;5048443;28;20059;-66
2022/12/05 02:41:34;;;;;;;28.75;11.60;;;4.90;99.90;;;;;;5090386;28;20203;-66
2022/12/05 02:44:16;;;;;;;24.65;9.95;;;4.90;99.90;;;;;;5090739;28;20052;-66
2022/12/05 02:46:45;;;;;;;29.60;10.13;;;4.90;99.90;;;;;;5091342;28;20048;-66
2022/12/05 02:49:15;;;;;;;29.38;11.05;;;4.90;99.90;;;;;;5089933;28;20097;-66
2022/12/05 02:51:50;;;;;;;33.33;12.15;;;4.90;99.90;;;;;;5090195;28;20044;-66
2022/12/05 02:54:20;;;;;;;28.90;11.80;;;4.90;99.90;;;;;;5055372;28;20056;-66
2022/12/05 02:56:47;;;;;;;31.17;11.63;;;4.90;99.90;;;;;;5083578;28;20467;-66
2022/12/05 02:59:13;;;;;;;31.20;10.93;;;5.00;99.90;;;;;;5089071;28;20044;-66
2022/12/05 03:01:39;;;;;;;29.80;10.60;;;5.00;99.90;;;;;;5090679;28;20066;-66
2022/12/05 03:04:10;;;;;;;31.33;12.07;;;5.10;99.90;;;;;;5090071;28;20056;-66
2022/12/05 03:06:52;;;;;;;28.52;10.63;;;5.00;99.90;;;;;;5090469;28;20071;-66
2022/12/05 03:09:29;;;;;;;29.98;11.52;;;5.00;99.90;;;;;;5089923;28;20036;-66
2022/12/05 03:12:17;;;;;;;27.83;11.20;;;5.00;99.90;;;;;;5090331;28;20039;-66
2022/12/05 03:14:49;;;;;;;29.02;11.07;;;5.00;99.90;;;;;;5090686;28;20048;-65
2022/12/05 03:17:22;;;;;;;30.60;11.52;;;5.00;99.90;;;;;;5090145;28;20493;-66
2022/12/05 03:19:52;;;;;;;28.50;10.80;;;5.00;99.90;;;;;;5089469;28;20097;-66
2022/12/05 03:22:30;;;;;;;26.17;12.10;;;5.00;99.90;;;;;;5090363;28;20055;-66
2022/12/05 03:24:57;;;;;;;30.02;10.80;;;5.00;99.90;;;;;;5088594;28;20501;-66
2022/12/05 03:28:02;;;;;;;27.90;11.35;;;5.00;99.90;;;;;;5090335;28;20052;-66
2022/12/05 03:30:29;;;;;;;26.63;11.63;;;5.10;99.90;;;;;;5011783;28;20137;-66
2022/12/05 03:33:11;;;;;;;31.42;11.13;;;5.00;99.90;;;;;;5080968;28;20606;-66
2022/12/05 03:35:43;;;;;;;25.88;11.27;;;5.00;99.90;;;;;;5075724;28;20056;-66
2022/12/05 03:38:11;;;;;;;30.02;9.98;;;5.00;99.90;;;;;;5093791;28;20101;-67
2022/12/05 03:40:56;;;;;;;26.67;9.85;;;5.10;99.90;;;;;;5093340;28;20055;-66
2022/12/05 03:43:52;;;;;;;27.25;10.32;;;5.10;99.90;;;;;;5094289;28;20051;-66
2022/12/05 03:46:35;;;;;;;26.45;10.38;;;5.10;99.90;;;;;;5093968;28;20134;-66
2022/12/05 03:49:08;;;;;;;28.15;10.10;;;5.10;99.90;;;;;;5074697;28;20138;-69
2022/12/05 03:51:40;;;;;;;25.92;11.25;;;5.10;99.90;;;;;;5093856;28;20059;-66
2022/12/05 03:54:26;;;;;;;31.48;10.95;;;5.10;99.90;;;;;;5093269;28;20063;-67
2022/12/05 03:56:59;;;;;;;29.75;9.80;;;5.10;99.90;;;;;;5094156;28;20404;-66
2022/12/05 03:59:44;;;;;;;33.50;11.95;;;5.20;99.90;;;;;;5092702;28;20056;-66
2022/12/05 04:02:23;;;;;;;34.40;10.95;;;5.20;99.90;;;;;;5093817;28;20048;-66
2022/12/05 04:05:08;;;;;;;27.90;10.63;;;5.20;99.90;;;;;;5092939;28;20051;-67
2022/12/05 04:07:37;;;;;;;28.40;10.65;;;5.20;99.90;;;;;;5093400;28;20421;-66
2022/12/05 04:10:11;;;;;;;29.77;9.95;;;5.20;99.90;;;;;;5074305;28;20076;-69
2022/12/05 04:12:40;;;;;;;26.55;9.93;;;5.20;99.90;;;;;;5094284;28;20417;-66
2022/12/05 04:15:15;;;;;;;27.05;10.32;;;5.20;99.90;;;;;;5093366;28;20043;-66
2022/12/05 04:17:50;;;;;;;26.88;10.82;;;5.20;99.90;;;;;;5094063;28;20040;-67
2022/12/05 04:23:24;;;;;;;35.47;11.90;;;5.20;99.90;;;;;;5093079;28;20058;-66
2022/12/05 04:26:02;;;;;;;30.50;10.82;;;5.20;99.90;;;;;;5093376;28;20052;-66
2022/12/05 04:28:44;;;;;;;27.52;11.02;;;5.30;99.90;;;;;;5093199;28;20051;-67
2022/12/05 04:31:15;;;;;;;31.83;10.88;;;5.20;99.90;;;;;;5092960;28;20052;-67
2022/12/05 04:33:45;;;;;;;32.78;11.25;;;5.30;99.90;;;;;;5092554;28;20511;-66
2022/12/05 04:36:17;;;;;;;26.80;11.38;;;5.30;99.90;;;;;;5091905;28;20055;-66
2022/12/05 04:38:50;;;;;;;26.08;10.27;;;5.30;99.90;;;;;;5093125;28;20486;-67
2022/12/05 04:41:45;;;;;;;32.10;10.98;;;5.30;99.90;;;;;;5092700;28;20044;-66
2022/12/05 04:44:16;;;;;;;34.50;11.40;;;5.30;99.90;;;;;;5088501;28;20424;-66
2022/12/05 04:46:43;;;;;;;29.38;10.70;;;5.30;99.90;;;;;;5093435;28;20390;-66
2022/12/05 04:49:14;;;;;;;34.47;11.07;;;5.40;99.90;;;;;;5092334;28;20050;-66
2022/12/05 04:51:41;;;;;;;34.95;11.98;;;5.30;99.90;;;;;;5092821;28;20156;-66
2022/12/05 04:54:20;;;;;;;26.83;9.90;;;5.30;99.90;;;;;;5071266;28;20140;-69
2022/12/05 04:56:49;;;;;;;28.40;10.52;;;5.30;99.90;;;;;;5077055;28;20058;-66
2022/12/05 04:59:15;;;;;;;30.63;11.60;;;5.30;99.90;;;;;;5074451;28;20799;-66
2022/12/05 05:01:55;;;;;;;31.17;10.55;;;5.30;99.90;;;;;;5093099;28;20051;-67
2022/12/05 05:04:28;;;;;;;26.42;9.77;;;5.40;99.90;;;;;;5091656;28;20130;-67
2022/12/05 05:06:54;;;;;;;28.73;10.45;;;5.30;99.90;;;;;;5074562;28;20552;-66
2022/12/05 05:09:20;;;;;;;;;;;5.30;99.90;;;;;;5092473;28;20127;-66
2022/12/05 05:11:46;;;;;;;24.52;9.98;;;5.70;99.90;;;;;;5092512;28;20014;-66
2022/12/05 05:14:11;;;;;;;30.05;11.15;;;5.30;99.90;;;;;;5092234;28;20044;-66
2022/12/05 05:16:40;;;;;;;28.48;10.65;;;5.30;99.90;;;;;;5092270;28;20044;-66
2022/12/05 05:19:08;;;;;;;28.63;10.07;;;5.30;99.90;;;;;;5092319;28;20040;-66
2022/12/05 05:21:38;;;;;;;27.08;10.35;;;5.30;99.90;;;;;;5091637;28;20109;-66
2022/12/05 05:24:06;;;;;;;24.00;9.98;;;5.70;99.90;;;;;;5092367;28;20119;-66
2022/12/05 05:26:37;;;;;;;24.75;9.80;;;5.30;99.90;;;;;;5091778;28;20818;-66
2022/12/05 05:29:03;;;;;;;21.73;9.18;;;5.30;99.90;;;;;;5092583;28;20409;-66
2022/12/05 05:31:30;;;;;;;22.58;9.57;;;5.30;99.90;;;;;;5091939;28;20054;-66
2022/12/05 05:33:56;;;;;;;28.77;9.48;;;5.30;99.90;;;;;;5092440;28;20097;-67
2022/12/05 05:36:22;;;;;;;;;;;5.30;99.90;;;;;;5091506;28;20048;-66
2022/12/05 05:38:51;;;;;;;23.35;9.77;;;5.30;99.90;;;;;;5091716;28;20381;-66
2022/12/05 05:41:26;;;;;;;25.33;9.52;;;5.30;99.90;;;;;;5090533;28;20048;-66
2022/12/05 05:43:52;;;;;;;24.13;9.23;;;5.30;99.90;;;;;;5092502;28;20087;-66
2022/12/05 05:46:21;;;;;;;23.95;9.48;;;5.30;99.90;;;;;;5091469;28;20078;-66
2022/12/05 05:48:48;;;;;;;22.88;9.75;;;5.30;99.90;;;;;;5092172;28;20062;-66
2022/12/05 05:51:15;;;;;;;23.58;9.18;;;5.30;99.90;;;;;;5090134;28;20044;-69
2022/12/05 05:53:41;;;;;;;26.92;8.90;;;5.30;99.90;;;;;;5091377;28;20063;-66
2022/12/05 05:56:11;;;;;;;;;;;5.30;99.90;;;;;;5092077;28;20063;-66
2022/12/05 05:58:37;;;;;;;23.80;9.25;;;5.30;99.90;;;;;;5091723;28;19924;-66
2022/12/05 06:01:08;;;;;;;19.45;8.60;;;5.30;99.90;;;;;;5073504;28;20046;-66
2022/12/05 06:03:34;;;;;;;22.58;8.70;;;5.30;99.90;;;;;;5066049;28;20036;-66
2022/12/05 06:06:02;;;;;;;;;;;5.30;99.90;;;;;;5084028;28;20045;-66
2022/12/05 06:08:29;;;;;;;21.88;8.65;;;5.60;99.90;;;;;;5083577;28;19924;-66
2022/12/05 06:10:55;;;;;;;21.67;8.13;;;5.30;99.90;;;;;;5056588;28;20074;-66
2022/12/05 06:13:21;;;;;;;20.70;8.20;;;5.30;99.90;;;;;;5091264;28;20439;-67
2022/12/05 06:15:47;;;;;;;21.45;8.48;;;5.30;99.90;;;;;;5091364;28;20040;-66
2022/12/05 06:18:12;;;;;;;18.88;7.88;;;5.30;99.90;;;;;;5073633;28;20473;-66
2022/12/05 06:20:38;;;;;;;21.08;7.47;;;5.30;99.90;;;;;;5089834;28;20408;-67
2022/12/05 06:23:04;;;;;;;22.73;8.18;;;5.30;99.90;;;;;;5087621;28;20110;-66
2022/12/05 06:25:29;;;;;;;24.30;7.78;;;5.40;99.90;;;;;;5060644;28;20122;-66
2022/12/05 06:27:55;;;;;;;19.45;8.18;;;5.50;99.90;;;;;;5090888;28;20083;-66
2022/12/05 06:30:20;;;;;;;19.08;8.15;;;5.40;99.90;;;;;;5088951;28;20101;-66
2022/12/05 06:32:46;;;;;;;23.08;8.32;;;5.40;99.90;;;;;;5091147;28;20127;-67
2022/12/05 06:35:15;;;;;;;19.27;7.90;;;5.30;99.90;;;;;;5074423;28;20072;-67
2022/12/05 06:37:42;;;;;;;18.52;7.28;;;5.30;99.90;;;;;;5070194;28;20063;-68
2022/12/05 06:40:08;;;;;;;19.58;7.70;;;5.40;99.90;;;;;;5070372;28;20045;-66
2022/12/05 06:42:34;;;;;;;18.13;7.28;;;5.30;99.90;;;;;;5070434;28;20056;-66
2022/12/05 06:45:00;;;;;;;16.80;7.07;;;5.30;99.90;;;;;;5070440;28;20127;-66
2022/12/05 06:47:25;;;;;;;18.83;7.75;;;5.30;99.90;;;;;;5075841;28;20040;-67
2022/12/05 06:49:51;;;;;;;19.42;7.10;;;5.40;99.90;;;;;;5089881;28;20040;-66
2022/12/05 06:52:17;;;;;;;17.70;7.35;;;5.30;99.90;;;;;;5090990;28;20052;-69
2022/12/05 06:54:42;;;;;;;18.88;7.35;;;5.30;99.90;;;;;;5089928;28;20048;-68
2022/12/05 06:57:08;;;;;;;17.40;6.30;;;5.30;99.90;;;;;;5090566;28;20052;-68
2022/12/05 06:59:34;;;;;;;15.07;6.72;;;5.30;99.90;;;;;;5089544;28;20032;-67
2022/12/05 07:01:59;;;;;;;20.38;6.93;;;5.30;99.90;;;;;;5090634;28;20084;-67
2022/12/05 07:04:25;;;;;;;17.73;6.93;;;5.30;99.90;;;;;;5088804;28;20044;-66
2022/12/05 07:06:53;;;;;;;19.13;8.13;;;5.40;99.90;;;;;;5090729;28;20048;-67
2022/12/05 07:09:21;;;;;;;17.30;6.80;;;5.40;99.90;;;;;;5089698;28;20044;-70
2022/12/05 07:11:48;;;;;;;19.75;7.00;;;5.40;99.90;;;;;;5071949;28;20489;-67
2022/12/05 07:14:14;;;;;;;13.80;6.47;;;5.40;99.90;;;;;;5090169;28;20071;-68
2022/12/05 07:16:40;;;;;;;19.48;8.30;;;5.40;99.90;;;;;;5084003;28;20036;-67
2022/12/05 07:19:06;;;;;;;17.13;7.57;;;5.50;99.90;;;;;;5070046;28;20044;-67
2022/12/05 07:21:31;;;;;;;15.55;6.72;;;5.40;99.90;;;;;;5088272;28;20048;-67
2022/12/05 07:23:57;;;;;;;18.95;6.50;;;5.40;99.90;;;;;;5089784;28;20464;-67
2022/12/05 07:26:23;;;;;;;14.40;6.00;;;5.50;99.90;;;;;;5089883;28;20384;-70
2022/12/05 07:28:51;;;;;;;16.33;5.97;;;5.40;99.90;;;;;;5090707;28;20048;-67
2022/12/05 07:31:19;;;;;;;11.30;4.97;;;5.50;99.90;;;;;;5072103;28;20697;-67
2022/12/05 07:33:45;;;;;;;12.95;5.13;;;5.50;99.90;;;;;;5064831;28;20469;-67
2022/12/05 07:36:14;;;;;;;9.98;4.50;;;5.50;99.90;;;;;;5071629;28;20044;-67
2022/12/05 07:38:40;;;;;;;8.10;3.90;;;5.50;99.90;;;;;;5089599;28;20094;-67
2022/12/05 07:41:09;;;;;;;10.13;4.28;;;5.50;99.90;;;;;;5090070;28;20048;-67
2022/12/05 07:43:34;;;;;;;9.00;3.85;;;5.50;99.90;;;;;;5090155;28;20036;-67
2022/12/05 07:46:05;;;;;;;8.35;3.78;;;5.60;99.90;;;;;;5073462;28;20488;-67
2022/12/05 07:48:31;;;;;;;6.03;2.95;;;5.60;99.90;;;;;;5069697;28;20120;-67
2022/12/05 07:51:02;;;;;;;7.13;3.33;;;5.60;99.90;;;;;;5069196;28;20088;-67
2022/12/05 07:53:29;;;;;;;6.63;2.75;;;5.50;99.90;;;;;;5069003;28;20135;-67
2022/12/05 07:55:57;;;;;;;7.32;2.90;;;5.60;99.90;;;;;;5084168;28;20142;-67
2022/12/05 07:58:23;;;;;;;6.90;3.28;;;5.60;99.90;;;;;;5089996;28;20398;-67
2022/12/05 08:00:48;;;;;;;8.18;3.63;;;5.60;99.90;;;;;;5089421;28;20087;-67
2022/12/05 08:03:14;;;;;;;6.03;2.70;;;5.60;99.90;;;;;;5090370;28;20109;-67
2022/12/05 08:05:40;;;;;;;8.25;2.92;;;5.70;99.90;;;;;;5070694;28;20541;-67
2022/12/05 08:08:05;;;;;;;7.38;3.15;;;5.60;99.90;;;;;;5090116;28;20170;-68
2022/12/05 08:10:32;;;;;;;7.40;3.00;;;5.70;99.90;;;;;;5089189;28;20485;-67
2022/12/05 08:12:58;;;;;;;6.13;2.88;;;5.70;99.90;;;;;;5086640;28;20040;-68
2022/12/05 08:15:23;;;;;;;5.90;2.85;;;5.70;99.90;;;;;;5092459;28;20048;-69
2022/12/05 08:17:49;;;;;;;6.43;2.83;;;5.60;99.90;;;;;;5092289;28;20059;-69
2022/12/05 08:20:15;;;;;;;7.07;3.00;;;5.70;99.90;;;;;;5093050;28;20046;-69
2022/12/05 08:22:40;;;;;;;6.18;2.75;;;5.80;99.90;;;;;;5092989;28;20113;-69
2022/12/05 08:25:07;;;;;;;5.82;3.03;;;5.80;99.90;;;;;;5075475;28;20131;-69
2022/12/05 08:27:32;;;;;;;5.47;2.88;;;5.90;99.90;;;;;;5093298;28;20047;-74
2022/12/05 08:29:58;;;;;;;6.30;3.25;;;5.90;99.90;;;;;;5074899;28;20054;-70
2022/12/05 08:32:23;;;;;;;7.35;2.90;;;6.00;99.90;;;;;;5075740;28;20128;-64
2022/12/05 08:34:50;;;;;;;6.88;3.17;;;5.90;99.90;;;;;;5073752;28;20111;-68
2022/12/05 08:37:15;;;;;;;5.90;2.63;;;5.90;99.90;;;;;;5093752;28;20405;-67
2022/12/05 08:39:41;;;;;;;5.80;2.80;;;6.00;99.90;;;;;;5089071;28;20038;-65
2022/12/05 08:42:07;;;;;;;6.55;3.15;;;5.80;99.90;;;;;;5091165;28;20043;-65
2022/12/05 08:44:32;;;;;;;6.00;2.60;;;5.80;99.90;;;;;;5091320;28;20397;-65
2022/12/05 08:46:58;;;;;;;7.90;2.83;;;5.80;99.90;;;;;;5073754;28;20075;-65
2022/12/05 08:49:23;;;;;;;5.88;2.92;;;5.80;99.90;;;;;;5090176;28;20062;-64
2022/12/05 08:51:49;;;;;;;6.45;2.80;;;5.80;99.90;;;;;;5071277;28;20047;-64
2022/12/05 08:54:15;;;;;;;6.03;3.05;;;5.80;99.90;;;;;;5090948;28;20117;-64
2022/12/05 08:56:41;;;;;;;7.05;2.85;;;5.80;99.90;;;;;;5087902;28;20467;-64
2022/12/05 08:59:06;;;;;;;8.07;3.85;;;5.70;99.90;;;;;;5091662;28;20485;-65
2022/12/05 09:01:35;;;;;;;8.40;3.30;;;5.70;99.90;;;;;;5090892;28;20044;-67
2022/12/05 09:04:03;;;;;;;5.78;2.70;;;5.70;99.90;;;;;;5090279;28;20040;-64
2022/12/05 09:06:30;;;;;;;5.07;3.03;;;5.70;99.90;;;;;;5090101;28;20040;-64
2022/12/05 09:08:57;;;;;;;7.47;3.28;;;5.80;99.90;;;;;;5090414;28;20382;-65
2022/12/05 09:11:27;;;;;;;7.22;3.20;;;5.70;99.90;;;;;;5090397;28;20489;-64
2022/12/05 09:13:55;;;;;;;5.88;2.85;;;5.80;99.90;;;;;;5090448;28;20151;-64
2022/12/05 09:16:28;;;;;;;7.22;3.13;;;5.80;99.90;;;;;;5087422;28;20054;-64
2022/12/05 09:18:54;;;;;;;7.30;3.53;;;5.80;99.90;;;;;;5087583;28;20040;-64
2022/12/05 09:21:21;;;;;;;;;;;5.80;99.90;;;;;;5091108;28;20048;-65
2022/12/05 09:23:48;;;;;;;6.78;3.05;;;5.80;99.90;;;;;;5090292;28;20296;-65
2022/12/05 09:26:16;;;;;;;7.93;3.55;;;5.80;99.90;;;;;;5088799;28;20089;-64
2022/12/05 09:28:43;;;;;;;9.32;3.80;;;5.80;99.90;;;;;;5087875;28;20170;-65
2022/12/05 09:31:14;;;;;;;7.60;3.53;;;5.80;99.90;;;;;;5071991;28;20040;-65
2022/12/05 09:33:40;;;;;;;9.18;2.97;;;5.90;99.90;;;;;;5085738;28;20060;-65
2022/12/05 09:36:12;;;;;;;9.15;4.00;;;5.80;99.90;;;;;;5079763;28;20056;-66
2022/12/05 09:38:38;;;;;;;6.88;3.42;;;5.80;99.90;;;;;;5078722;28;20036;-67
2022/12/05 09:44:21;;;;;;;7.75;3.20;;;5.80;99.90;;;;;;5077676;28;20057;-67
2022/12/05 09:47:01;;;;;;;11.90;3.42;;;5.80;99.90;;;;;;5090205;28;20108;-65
2022/12/05 09:49:29;;;;;;;9.15;3.83;;;5.80;99.90;;;;;;5073426;28;20406;-65
2022/12/05 09:51:56;;;;;;;11.70;3.53;;;5.90;99.90;;;;;;5070895;28;20052;-67
2022/12/05 09:54:23;;;;;;;7.95;3.80;;;5.80;99.90;;;;;;5077018;28;20052;-68
2022/12/05 09:56:50;;;;;;;11.30;3.58;;;5.80;99.90;;;;;;5051793;28;20060;-65
2022/12/05 09:59:19;;;;;;;10.18;3.58;;;5.80;99.90;;;;;;5072737;28;20041;-64
2022/12/05 10:02:02;;;;;;;8.18;3.72;;;5.90;99.90;;;;;;5083684;28;20048;-64
2022/12/05 10:04:33;;;;;;;7.32;3.70;;;5.80;99.90;;;;;;5085109;28;20098;-65
2022/12/05 10:07:29;;;;;;;8.48;4.13;;;5.80;99.90;;;;;;5088280;28;20689;-64
2022/12/05 10:10:01;;;;;;;10.43;3.95;;;5.70;99.90;;;;;;5075562;28;20170;-64
2022/12/05 10:12:55;;;;;;;8.63;4.43;;;5.80;99.90;;;;;;5082347;28;20040;-65
2022/12/05 10:15:46;;;;;;;8.90;3.85;;;5.70;99.90;;;;;;5077385;28;20504;-65
2022/12/05 10:18:43;;;;;;;10.20;3.95;;;5.70;99.90;;;;;;5088848;28;20056;-65
2022/12/05 10:21:20;;;;;;;9.48;4.75;;;5.70;99.90;;;;;;5075172;28;20054;-65
2022/12/05 10:23:56;;;;;;;10.07;3.97;;;5.80;99.90;;;;;;5084255;28;20045;-65
2022/12/05 10:26:27;;;;;;;11.30;4.03;;;5.80;99.90;;;;;;5083963;28;20059;-65
2022/12/05 10:29:06;;;;;;;10.10;4.00;;;5.70;99.90;;;;;;5047133;28;20044;-65
2022/12/05 10:31:36;;;;;;;8.30;3.72;;;5.80;99.90;;;;;;5088364;28;20075;-65
2022/12/05 10:34:20;;;;;;;14.00;4.38;;;5.80;99.90;;;;;;5086886;28;20162;-65
2022/12/05 10:36:57;;;;;;;11.18;4.88;;;5.80;99.90;;;;;;5087898;28;20083;-65
2022/12/05 10:39:23;;;;;;;8.57;3.80;;;5.80;99.90;;;;;;5089624;28;20048;-65
2022/12/05 10:41:49;;;;;;;9.73;4.18;;;5.80;99.90;;;;;;5085898;28;20039;-65
2022/12/05 10:44:14;;;;;;;11.05;4.45;;;5.80;99.90;;;;;;5089265;28;20632;-64
2022/12/05 10:46:40;;;;;;;12.27;4.35;;;5.80;99.90;;;;;;5089318;28;20096;-64
2022/12/05 10:49:12;;;;;;;10.70;4.65;;;5.80;99.90;;;;;;5070879;28;20584;-64
2022/12/05 10:51:39;;;;;;;14.57;4.53;;;5.70;99.90;;;;;;5088214;28;20435;-67
2022/12/05 10:54:24;;;;;;;10.70;4.25;;;5.80;99.90;;;;;;5083481;28;20113;-65
2022/12/05 10:56:52;;;;;;;10.80;4.65;;;5.80;99.90;;;;;;5087080;28;20468;-65
2022/12/05 10:59:23;;;;;;;7.95;4.10;;;5.80;99.90;;;;;;5088797;28;20047;-65
2022/12/05 11:01:57;;;;;;;11.35;5.32;;;5.80;99.90;;;;;;5083391;28;20036;-64
2022/12/05 11:04:30;;;;;;;9.25;3.65;;;5.80;99.90;;;;;;5083985;28;20036;-64
2022/12/05 11:07:00;;;;;;;11.73;4.07;;;5.80;99.90;;;;;;5087986;28;20056;-64
2022/12/05 11:09:32;;;;;;;11.00;4.22;;;5.80;99.90;;;;;;5088957;28;20104;-64
2022/12/05 11:12:04;;;;;;;9.05;4.15;;;5.70;99.90;;;;;;5068888;28;20040;-64
2022/12/05 11:14:33;;;;;;;9.32;3.92;;;5.70;99.90;;;;;;5087680;28;20054;-65
2022/12/05 11:17:00;;;;;;;9.65;4.20;;;5.70;99.90;;;;;;5087156;28;20048;-64
2022/12/05 11:19:37;;;;;;;10.48;4.70;;;5.70;99.90;;;;;;5084357;28;20177;-65
2022/12/05 11:22:04;;;;;;;;;;;5.70;99.90;;;;;;5082909;28;20447;-64
2022/12/05 11:24:34;;;;;;;14.90;4.38;;;5.70;99.90;;;;;;5086167;28;19928;-64
2022/12/05 11:27:30;;;;;;;9.15;3.85;;;5.70;99.90;;;;;;5085006;28;20044;-65
2022/12/05 11:30:11;;;;;;;9.48;3.85;;;5.70;99.90;;;;;;5086520;28;20042;-65
2022/12/05 11:32:38;;;;;;;10.48;4.30;;;5.70;99.90;;;;;;5085263;28;20048;-65
2022/12/05 11:35:12;;;;;;;8.65;3.90;;;5.70;99.90;;;;;;5086400;28;20046;-64
2022/12/05 11:38:03;;;;;;;8.52;3.80;;;5.70;99.90;;;;;;5084279;28;20055;-65
2022/12/05 11:40:41;;;;;;;8.38;3.72;;;5.70;99.90;;;;;;5086699;28;20199;-64
2022/12/05 11:43:19;;;;;;;8.77;3.95;;;5.70;99.90;;;;;;5088003;28;20254;-64
2022/12/05 11:46:02;;;;;;;7.72;3.58;;;5.60;99.90;;;;;;5089299;28;20501;-65
2022/12/05 11:48:51;;;;;;;8.40;4.13;;;5.60;99.90;;;;;;5089602;28;20101;-65
2022/12/05 11:51:30;;;;;;;8.38;3.33;;;5.60;99.90;;;;;;5088566;28;20393;-64
2022/12/05 11:54:05;;;;;;;8.10;3.70;;;5.60;99.90;;;;;;5092457;28;20056;-65
2022/12/05 11:56:41;;;;;;;9.55;3.95;;;5.60;99.90;;;;;;5086303;28;20052;-65
2022/12/05 11:59:24;;;;;;;9.10;3.72;;;5.60;99.90;;;;;;5092644;28;20044;-64
2022/12/05 12:01:57;;;;;;;7.43;3.67;;;5.70;99.90;;;;;;5089254;28;20040;-67
2022/12/05 12:04:44;;;;;;;7.35;3.17;;;5.70;99.90;;;;;;5076213;28;20102;-64
2022/12/05 12:08:00;;;;;;;8.02;3.45;;;5.70;99.90;;;;;;5048409;28;20071;-64
2022/12/05 12:10:40;;;;;;;6.50;3.13;;;5.70;99.90;;;;;;5065767;28;20082;-64
2022/12/05 12:13:34;;;;;;;8.82;3.10;;;5.70;99.90;;;;;;5092329;28;20051;-64
2022/12/05 12:16:27;;;;;;;7.40;3.38;;;5.70;99.90;;;;;;5088554;28;20057;-64
2022/12/05 12:19:14;;;;;;;8.52;3.72;;;5.70;99.90;;;;;;5091513;28;20083;-67
2022/12/05 12:21:52;;;;;;;10.15;4.28;;;5.80;99.90;;;;;;5092961;28;20536;-65
2022/12/05 12:24:29;;;;;;;6.47;2.80;;;5.80;99.90;;;;;;5082129;28;20068;-64
2022/12/05 12:27:15;;;;;;;7.15;3.15;;;5.80;99.90;;;;;;5091247;28;20048;-65
2022/12/05 12:29:53;;;;;;;6.45;3.10;;;5.80;99.90;;;;;;5093233;28;20044;-65
2022/12/05 12:32:38;;;;;;;7.03;3.45;;;5.80;99.90;;;;;;5092614;28;20052;-65
2022/12/05 12:35:13;;;;;;;7.55;2.72;;;5.80;99.90;;;;;;5091634;28;20052;-65
2022/12/05 12:37:59;;;;;;;7.82;2.95;;;5.80;99.90;;;;;;5080318;28;20080;-65
2022/12/05 12:41:01;;;;;;;5.93;2.65;;;5.80;99.90;;;;;;5080863;28;20043;-65
2022/12/05 12:43:47;;;;;;;7.13;2.70;;;5.80;99.90;;;;;;5078626;28;20405;-65
2022/12/05 12:46:44;;;;;;;7.55;3.20;;;5.80;99.90;;;;;;5087412;28;20048;-65
2022/12/05 12:49:13;;;;;;;6.67;3.37;;;5.90;99.90;;;;;;5049838;28;20043;-66
2022/12/05 12:51:46;;;;;;;7.68;2.78;;;5.80;99.90;;;;;;5092144;28;20052;-66
2022/12/05 12:54:53;;;;;;;7.40;3.25;;;5.90;99.90;;;;;;5090645;28;20060;-65
2022/12/05 12:57:24;;;;;;;8.43;3.35;;;5.90;99.90;;;;;;5040406;28;20049;-65
2022/12/05 13:00:02;;;;;;;7.78;2.80;;;5.90;99.90;;;;;;5072791;28;20132;-66
2022/12/05 13:02:36;;;;;;;6.05;2.53;;;5.80;99.90;;;;;;5078675;28;20155;-67
2022/12/05 13:05:33;;;;;;;5.13;2.40;;;5.80;99.90;;;;;;5085845;28;20080;-68
2022/12/05 13:08:03;;;;;;;6.57;2.92;;;5.80;99.90;;;;;;5087642;28;20108;-65
2022/12/05 13:10:46;;;;;;;4.55;2.50;;;5.80;99.90;;;;;;5090672;28;20456;-65
2022/12/05 13:13:20;;;;;;;6.43;2.60;;;5.80;99.90;;;;;;5046574;28;20577;-65
2022/12/05 13:15:55;;;;;;;5.28;2.33;;;5.90;99.90;;;;;;5071644;28;20191;-65
2022/12/05 13:18:23;;;;;;;5.20;2.30;;;5.80;99.90;;;;;;5071414;28;20041;-66
2022/12/05 13:21:02;;;;;;;5.53;2.70;;;5.80;99.90;;;;;;5052959;28;20494;-65